sensor_id;sensor_type;location;lat;lon;timestamp;P1;durP1;ratioP1;P2;durP2;ratioP2
80725;SDS011;70113;59.928;10.878;2023-06-26T00:00:46;5.77;;;3.83;;
80725;SDS011;70113;59.928;10.878;2023-06-26T00:03:33;6.07;;;4.18;;
80725;SDS011;70113;59.928;10.878;2023-06-26T00:05:58;6.65;;;4.10;;
80725;SDS011;70113;59.928;10.878;2023-06-26T00:08:26;8.90;;;5.80;;
80725;SDS011;70113;59.928;10.878;2023-06-26T00:10:52;8.00;;;6.00;;
80725;SDS011;70113;59.928;10.878;2023-06-26T00:13:18;10.18;;;5.50;;
80725;SDS011;70113;59.928;10.878;2023-06-26T00:15:44;9.13;;;5.82;;
80725;SDS011;70113;59.928;10.878;2023-06-26T00:18:10;9.10;;;5.40;;
80725;SDS011;70113;59.928;10.878;2023-06-26T00:20:36;7.43;;;4.68;;
80725;SDS011;70113;59.928;10.878;2023-06-26T00:23:02;6.95;;;5.03;;
80725;SDS011;70113;59.928;10.878;2023-06-26T00:25:29;7.78;;;5.15;;
80725;SDS011;70113;59.928;10.878;2023-06-26T00:27:55;7.95;;;5.05;;
80725;SDS011;70113;59.928;10.878;2023-06-26T00:30:20;10.02;;;6.18;;
80725;SDS011;70113;59.928;10.878;2023-06-26T00:32:46;9.85;;;6.30;;
80725;SDS011;70113;59.928;10.878;2023-06-26T00:35:12;11.55;;;6.78;;
80725;SDS011;70113;59.928;10.878;2023-06-26T00:37:37;11.82;;;7.70;;
80725;SDS011;70113;59.928;10.878;2023-06-26T00:40:03;11.40;;;8.18;;
80725;SDS011;70113;59.928;10.878;2023-06-26T00:42:30;11.25;;;8.40;;
80725;SDS011;70113;59.928;10.878;2023-06-26T00:44:56;11.63;;;7.97;;
80725;SDS011;70113;59.928;10.878;2023-06-26T00:47:22;14.02;;;9.43;;
80725;SDS011;70113;59.928;10.878;2023-06-26T00:49:49;13.95;;;9.50;;
80725;SDS011;70113;59.928;10.878;2023-06-26T00:52:15;15.63;;;10.38;;
80725;SDS011;70113;59.928;10.878;2023-06-26T00:54:42;12.63;;;9.05;;
80725;SDS011;70113;59.928;10.878;2023-06-26T00:57:08;13.88;;;8.70;;
80725;SDS011;70113;59.928;10.878;2023-06-26T00:59:34;12.02;;;9.15;;
80725;SDS011;70113;59.928;10.878;2023-06-26T01:02:00;14.40;;;8.30;;
80725;SDS011;70113;59.928;10.878;2023-06-26T01:04:25;11.45;;;8.35;;
80725;SDS011;70113;59.928;10.878;2023-06-26T01:06:53;11.52;;;7.55;;
80725;SDS011;70113;59.928;10.878;2023-06-26T01:09:20;8.88;;;6.72;;
80725;SDS011;70113;59.928;10.878;2023-06-26T01:11:47;8.48;;;6.05;;
80725;SDS011;70113;59.928;10.878;2023-06-26T01:14:13;10.40;;;6.65;;
80725;SDS011;70113;59.928;10.878;2023-06-26T01:16:40;10.23;;;6.90;;
80725;SDS011;70113;59.928;10.878;2023-06-26T01:19:10;9.75;;;6.35;;
80725;SDS011;70113;59.928;10.878;2023-06-26T01:21:40;11.25;;;6.25;;
80725;SDS011;70113;59.928;10.878;2023-06-26T01:24:16;9.30;;;6.20;;
80725;SDS011;70113;59.928;10.878;2023-06-26T01:26:53;8.32;;;5.88;;
80725;SDS011;70113;59.928;10.878;2023-06-26T01:29:19;9.07;;;5.70;;
80725;SDS011;70113;59.928;10.878;2023-06-26T01:31:49;10.23;;;5.88;;
80725;SDS011;70113;59.928;10.878;2023-06-26T01:34:17;7.93;;;5.35;;
80725;SDS011;70113;59.928;10.878;2023-06-26T01:36:44;8.00;;;5.72;;
80725;SDS011;70113;59.928;10.878;2023-06-26T01:39:13;8.38;;;5.72;;
80725;SDS011;70113;59.928;10.878;2023-06-26T01:41:40;7.53;;;4.82;;
80725;SDS011;70113;59.928;10.878;2023-06-26T01:51:47;6.85;;;4.57;;
80725;SDS011;70113;59.928;10.878;2023-06-26T01:54:29;7.45;;;4.72;;
80725;SDS011;70113;59.928;10.878;2023-06-26T01:56:58;8.07;;;4.97;;
80725;SDS011;70113;59.928;10.878;2023-06-26T02:02:06;7.20;;;5.07;;
80725;SDS011;70113;59.928;10.878;2023-06-26T02:04:33;7.40;;;5.32;;
80725;SDS011;70113;59.928;10.878;2023-06-26T02:06:58;7.75;;;5.25;;
80725;SDS011;70113;59.928;10.878;2023-06-26T02:09:24;7.38;;;4.60;;
80725;SDS011;70113;59.928;10.878;2023-06-26T02:11:50;6.72;;;4.53;;
80725;SDS011;70113;59.928;10.878;2023-06-26T02:14:15;7.85;;;4.97;;
80725;SDS011;70113;59.928;10.878;2023-06-26T02:16:41;6.97;;;5.13;;
80725;SDS011;70113;59.928;10.878;2023-06-26T02:19:07;6.88;;;4.93;;
80725;SDS011;70113;59.928;10.878;2023-06-26T02:21:32;8.07;;;5.07;;
80725;SDS011;70113;59.928;10.878;2023-06-26T02:23:58;8.20;;;5.10;;
80725;SDS011;70113;59.928;10.878;2023-06-26T02:26:24;8.15;;;5.28;;
80725;SDS011;70113;59.928;10.878;2023-06-26T02:28:50;8.55;;;5.70;;
80725;SDS011;70113;59.928;10.878;2023-06-26T02:31:15;8.48;;;4.57;;
80725;SDS011;70113;59.928;10.878;2023-06-26T02:33:41;6.45;;;4.28;;
80725;SDS011;70113;59.928;10.878;2023-06-26T02:36:07;5.90;;;4.30;;
80725;SDS011;70113;59.928;10.878;2023-06-26T02:38:33;6.60;;;4.35;;
80725;SDS011;70113;59.928;10.878;2023-06-26T02:40:59;5.65;;;3.88;;
80725;SDS011;70113;59.928;10.878;2023-06-26T02:43:24;8.30;;;4.53;;
80725;SDS011;70113;59.928;10.878;2023-06-26T02:45:50;6.00;;;4.28;;
80725;SDS011;70113;59.928;10.878;2023-06-26T02:48:16;5.93;;;4.15;;
80725;SDS011;70113;59.928;10.878;2023-06-26T02:50:41;7.20;;;4.38;;
80725;SDS011;70113;59.928;10.878;2023-06-26T02:53:11;6.88;;;4.30;;
80725;SDS011;70113;59.928;10.878;2023-06-26T02:55:37;5.68;;;3.90;;
80725;SDS011;70113;59.928;10.878;2023-06-26T02:58:03;7.25;;;4.20;;
80725;SDS011;70113;59.928;10.878;2023-06-26T03:00:28;6.75;;;3.60;;
80725;SDS011;70113;59.928;10.878;2023-06-26T03:02:55;5.43;;;3.47;;
80725;SDS011;70113;59.928;10.878;2023-06-26T03:05:21;5.32;;;3.60;;
80725;SDS011;70113;59.928;10.878;2023-06-26T03:07:46;5.35;;;3.30;;
80725;SDS011;70113;59.928;10.878;2023-06-26T03:10:12;5.65;;;3.33;;
80725;SDS011;70113;59.928;10.878;2023-06-26T03:12:38;7.35;;;3.50;;
80725;SDS011;70113;59.928;10.878;2023-06-26T03:15:03;4.75;;;3.17;;
80725;SDS011;70113;59.928;10.878;2023-06-26T03:17:29;5.45;;;3.10;;
80725;SDS011;70113;59.928;10.878;2023-06-26T03:19:55;6.25;;;3.30;;
80725;SDS011;70113;59.928;10.878;2023-06-26T03:22:21;5.15;;;3.17;;
80725;SDS011;70113;59.928;10.878;2023-06-26T03:24:46;4.63;;;2.95;;
80725;SDS011;70113;59.928;10.878;2023-06-26T03:27:12;4.55;;;2.67;;
80725;SDS011;70113;59.928;10.878;2023-06-26T03:29:38;5.22;;;3.30;;
80725;SDS011;70113;59.928;10.878;2023-06-26T03:32:03;6.50;;;3.28;;
80725;SDS011;70113;59.928;10.878;2023-06-26T03:34:29;5.00;;;3.20;;
80725;SDS011;70113;59.928;10.878;2023-06-26T03:36:55;5.68;;;3.03;;
80725;SDS011;70113;59.928;10.878;2023-06-26T03:39:20;5.15;;;2.80;;
80725;SDS011;70113;59.928;10.878;2023-06-26T03:41:46;5.15;;;2.97;;
80725;SDS011;70113;59.928;10.878;2023-06-26T03:44:12;5.45;;;3.45;;
80725;SDS011;70113;59.928;10.878;2023-06-26T03:46:38;4.97;;;3.25;;
80725;SDS011;70113;59.928;10.878;2023-06-26T03:49:03;4.75;;;2.95;;
80725;SDS011;70113;59.928;10.878;2023-06-26T03:51:29;5.75;;;3.10;;
80725;SDS011;70113;59.928;10.878;2023-06-26T03:53:55;5.15;;;3.15;;
80725;SDS011;70113;59.928;10.878;2023-06-26T03:56:20;5.43;;;2.75;;
80725;SDS011;70113;59.928;10.878;2023-06-26T03:58:46;4.38;;;2.50;;
80725;SDS011;70113;59.928;10.878;2023-06-26T04:01:12;6.57;;;3.10;;
80725;SDS011;70113;59.928;10.878;2023-06-26T04:03:37;4.22;;;2.47;;
80725;SDS011;70113;59.928;10.878;2023-06-26T04:06:03;4.47;;;2.50;;
80725;SDS011;70113;59.928;10.878;2023-06-26T04:08:29;4.28;;;2.35;;
80725;SDS011;70113;59.928;10.878;2023-06-26T04:10:54;4.68;;;2.35;;
80725;SDS011;70113;59.928;10.878;2023-06-26T04:13:23;4.90;;;2.60;;
80725;SDS011;70113;59.928;10.878;2023-06-26T04:15:48;4.90;;;2.75;;
80725;SDS011;70113;59.928;10.878;2023-06-26T04:18:14;3.70;;;2.30;;
80725;SDS011;70113;59.928;10.878;2023-06-26T04:21:03;5.03;;;2.33;;
80725;SDS011;70113;59.928;10.878;2023-06-26T04:23:37;4.22;;;2.45;;
80725;SDS011;70113;59.928;10.878;2023-06-26T04:26:04;4.30;;;2.40;;
80725;SDS011;70113;59.928;10.878;2023-06-26T04:28:31;3.90;;;2.33;;
80725;SDS011;70113;59.928;10.878;2023-06-26T04:30:58;5.00;;;2.47;;
80725;SDS011;70113;59.928;10.878;2023-06-26T04:33:24;4.53;;;2.20;;
80725;SDS011;70113;59.928;10.878;2023-06-26T04:35:51;4.75;;;2.53;;
80725;SDS011;70113;59.928;10.878;2023-06-26T04:38:18;5.88;;;2.78;;
80725;SDS011;70113;59.928;10.878;2023-06-26T04:40:44;4.32;;;2.53;;
80725;SDS011;70113;59.928;10.878;2023-06-26T04:43:10;4.40;;;2.53;;
80725;SDS011;70113;59.928;10.878;2023-06-26T04:45:36;4.60;;;2.47;;
80725;SDS011;70113;59.928;10.878;2023-06-26T04:48:02;4.25;;;2.30;;
80725;SDS011;70113;59.928;10.878;2023-06-26T04:50:29;4.75;;;2.55;;
80725;SDS011;70113;59.928;10.878;2023-06-26T04:52:56;5.38;;;2.35;;
80725;SDS011;70113;59.928;10.878;2023-06-26T04:55:23;4.50;;;2.35;;
80725;SDS011;70113;59.928;10.878;2023-06-26T04:57:50;3.92;;;2.38;;
80725;SDS011;70113;59.928;10.878;2023-06-26T05:00:16;4.28;;;2.65;;
80725;SDS011;70113;59.928;10.878;2023-06-26T05:02:42;4.85;;;2.55;;
80725;SDS011;70113;59.928;10.878;2023-06-26T05:05:08;4.20;;;2.30;;
80725;SDS011;70113;59.928;10.878;2023-06-26T05:07:36;5.30;;;2.10;;
80725;SDS011;70113;59.928;10.878;2023-06-26T05:10:02;3.78;;;2.10;;
80725;SDS011;70113;59.928;10.878;2023-06-26T05:12:28;3.60;;;1.83;;
80725;SDS011;70113;59.928;10.878;2023-06-26T05:14:53;4.85;;;2.58;;
80725;SDS011;70113;59.928;10.878;2023-06-26T05:17:20;5.20;;;2.80;;
80725;SDS011;70113;59.928;10.878;2023-06-26T05:19:46;3.83;;;2.35;;
80725;SDS011;70113;59.928;10.878;2023-06-26T05:22:12;5.25;;;2.50;;
80725;SDS011;70113;59.928;10.878;2023-06-26T05:24:39;4.95;;;2.58;;
80725;SDS011;70113;59.928;10.878;2023-06-26T05:27:05;4.43;;;2.40;;
80725;SDS011;70113;59.928;10.878;2023-06-26T05:29:32;3.67;;;2.00;;
80725;SDS011;70113;59.928;10.878;2023-06-26T05:31:59;4.13;;;2.20;;
80725;SDS011;70113;59.928;10.878;2023-06-26T05:34:25;4.40;;;2.42;;
80725;SDS011;70113;59.928;10.878;2023-06-26T05:36:58;7.95;;;2.42;;
80725;SDS011;70113;59.928;10.878;2023-06-26T05:39:24;4.55;;;2.20;;
80725;SDS011;70113;59.928;10.878;2023-06-26T05:41:50;3.53;;;2.20;;
80725;SDS011;70113;59.928;10.878;2023-06-26T05:44:16;4.30;;;2.38;;
80725;SDS011;70113;59.928;10.878;2023-06-26T05:46:42;3.92;;;2.20;;
80725;SDS011;70113;59.928;10.878;2023-06-26T05:49:09;4.40;;;2.50;;
80725;SDS011;70113;59.928;10.878;2023-06-26T05:51:35;3.88;;;2.08;;
80725;SDS011;70113;59.928;10.878;2023-06-26T05:54:01;3.70;;;2.20;;
80725;SDS011;70113;59.928;10.878;2023-06-26T05:56:27;3.92;;;2.20;;
80725;SDS011;70113;59.928;10.878;2023-06-26T05:58:53;4.18;;;1.98;;
80725;SDS011;70113;59.928;10.878;2023-06-26T06:01:20;5.07;;;2.50;;
80725;SDS011;70113;59.928;10.878;2023-06-26T06:03:45;4.07;;;2.42;;
80725;SDS011;70113;59.928;10.878;2023-06-26T06:06:11;5.50;;;2.38;;
80725;SDS011;70113;59.928;10.878;2023-06-26T06:08:37;4.00;;;1.80;;
80725;SDS011;70113;59.928;10.878;2023-06-26T06:11:03;4.65;;;2.70;;
80725;SDS011;70113;59.928;10.878;2023-06-26T06:13:28;5.95;;;2.65;;
80725;SDS011;70113;59.928;10.878;2023-06-26T06:15:54;5.03;;;2.92;;
80725;SDS011;70113;59.928;10.878;2023-06-26T06:18:21;6.13;;;2.80;;
80725;SDS011;70113;59.928;10.878;2023-06-26T06:20:47;5.03;;;2.75;;
80725;SDS011;70113;59.928;10.878;2023-06-26T06:23:13;4.22;;;2.58;;
80725;SDS011;70113;59.928;10.878;2023-06-26T06:25:39;5.75;;;2.38;;
80725;SDS011;70113;59.928;10.878;2023-06-26T06:28:05;4.72;;;2.25;;
80725;SDS011;70113;59.928;10.878;2023-06-26T06:30:30;4.28;;;2.03;;
80725;SDS011;70113;59.928;10.878;2023-06-26T06:32:57;4.30;;;2.30;;
80725;SDS011;70113;59.928;10.878;2023-06-26T06:35:23;4.32;;;2.22;;
80725;SDS011;70113;59.928;10.878;2023-06-26T06:37:49;3.92;;;1.98;;
80725;SDS011;70113;59.928;10.878;2023-06-26T06:40:14;3.67;;;1.92;;
80725;SDS011;70113;59.928;10.878;2023-06-26T06:42:40;3.90;;;2.17;;
80725;SDS011;70113;59.928;10.878;2023-06-26T06:45:06;3.95;;;1.80;;
80725;SDS011;70113;59.928;10.878;2023-06-26T06:47:32;4.90;;;2.35;;
80725;SDS011;70113;59.928;10.878;2023-06-26T06:49:59;4.45;;;2.17;;
80725;SDS011;70113;59.928;10.878;2023-06-26T06:52:39;4.03;;;2.05;;
80725;SDS011;70113;59.928;10.878;2023-06-26T06:55:06;3.83;;;2.00;;
80725;SDS011;70113;59.928;10.878;2023-06-26T06:57:37;3.67;;;2.05;;
80725;SDS011;70113;59.928;10.878;2023-06-26T07:00:08;3.67;;;2.08;;
80725;SDS011;70113;59.928;10.878;2023-06-26T07:02:37;3.50;;;1.40;;
80725;SDS011;70113;59.928;10.878;2023-06-26T07:05:03;3.05;;;1.65;;
80725;SDS011;70113;59.928;10.878;2023-06-26T07:07:31;3.05;;;1.75;;
80725;SDS011;70113;59.928;10.878;2023-06-26T07:10:07;3.47;;;1.70;;
80725;SDS011;70113;59.928;10.878;2023-06-26T07:12:35;3.60;;;1.67;;
80725;SDS011;70113;59.928;10.878;2023-06-26T07:15:02;5.93;;;2.40;;
80725;SDS011;70113;59.928;10.878;2023-06-26T07:17:33;5.25;;;2.25;;
80725;SDS011;70113;59.928;10.878;2023-06-26T07:19:59;4.53;;;2.20;;
80725;SDS011;70113;59.928;10.878;2023-06-26T07:22:26;5.32;;;2.60;;
80725;SDS011;70113;59.928;10.878;2023-06-26T07:24:52;3.78;;;2.20;;
80725;SDS011;70113;59.928;10.878;2023-06-26T07:27:18;4.57;;;2.30;;
80725;SDS011;70113;59.928;10.878;2023-06-26T07:29:44;3.67;;;1.90;;
80725;SDS011;70113;59.928;10.878;2023-06-26T07:32:10;6.20;;;2.25;;
80725;SDS011;70113;59.928;10.878;2023-06-26T07:34:36;4.00;;;2.10;;
80725;SDS011;70113;59.928;10.878;2023-06-26T07:37:02;4.07;;;2.17;;
80725;SDS011;70113;59.928;10.878;2023-06-26T07:39:28;3.88;;;2.47;;
80725;SDS011;70113;59.928;10.878;2023-06-26T07:41:54;3.35;;;2.05;;
80725;SDS011;70113;59.928;10.878;2023-06-26T07:44:21;4.75;;;2.22;;
80725;SDS011;70113;59.928;10.878;2023-06-26T07:46:47;4.55;;;2.15;;
80725;SDS011;70113;59.928;10.878;2023-06-26T07:49:13;3.97;;;2.22;;
80725;SDS011;70113;59.928;10.878;2023-06-26T07:51:39;3.83;;;2.33;;
80725;SDS011;70113;59.928;10.878;2023-06-26T07:54:04;4.88;;;2.35;;
80725;SDS011;70113;59.928;10.878;2023-06-26T07:56:30;4.28;;;2.35;;
80725;SDS011;70113;59.928;10.878;2023-06-26T07:58:56;3.83;;;2.03;;
80725;SDS011;70113;59.928;10.878;2023-06-26T08:01:26;4.60;;;1.85;;
80725;SDS011;70113;59.928;10.878;2023-06-26T08:03:51;4.03;;;2.13;;
80725;SDS011;70113;59.928;10.878;2023-06-26T08:08:42;5.57;;;2.60;;
80725;SDS011;70113;59.928;10.878;2023-06-26T08:11:08;4.97;;;2.10;;
80725;SDS011;70113;59.928;10.878;2023-06-26T08:13:33;5.57;;;2.70;;
80725;SDS011;70113;59.928;10.878;2023-06-26T08:15:59;4.35;;;2.38;;
80725;SDS011;70113;59.928;10.878;2023-06-26T08:18:25;3.65;;;2.00;;
80725;SDS011;70113;59.928;10.878;2023-06-26T08:20:51;5.50;;;2.45;;
80725;SDS011;70113;59.928;10.878;2023-06-26T08:23:16;4.05;;;2.00;;
80725;SDS011;70113;59.928;10.878;2023-06-26T08:25:42;5.57;;;2.20;;
80725;SDS011;70113;59.928;10.878;2023-06-26T08:28:08;6.20;;;2.58;;
80725;SDS011;70113;59.928;10.878;2023-06-26T08:30:34;3.30;;;1.83;;
80725;SDS011;70113;59.928;10.878;2023-06-26T08:32:59;6.15;;;2.45;;
80725;SDS011;70113;59.928;10.878;2023-06-26T08:35:27;4.40;;;2.20;;
80725;SDS011;70113;59.928;10.878;2023-06-26T08:37:52;4.65;;;2.20;;
80725;SDS011;70113;59.928;10.878;2023-06-26T08:40:20;5.72;;;2.30;;
80725;SDS011;70113;59.928;10.878;2023-06-26T08:42:46;6.78;;;2.63;;
80725;SDS011;70113;59.928;10.878;2023-06-26T08:45:12;4.28;;;2.30;;
80725;SDS011;70113;59.928;10.878;2023-06-26T08:47:38;5.05;;;2.45;;
80725;SDS011;70113;59.928;10.878;2023-06-26T08:50:07;4.65;;;2.30;;
80725;SDS011;70113;59.928;10.878;2023-06-26T08:52:36;7.13;;;2.55;;
80725;SDS011;70113;59.928;10.878;2023-06-26T08:55:09;4.43;;;2.38;;
80725;SDS011;70113;59.928;10.878;2023-06-26T08:57:36;3.85;;;1.95;;
80725;SDS011;70113;59.928;10.878;2023-06-26T09:00:03;6.10;;;2.35;;
80725;SDS011;70113;59.928;10.878;2023-06-26T09:02:29;5.03;;;2.47;;
80725;SDS011;70113;59.928;10.878;2023-06-26T09:04:55;5.15;;;2.30;;
80725;SDS011;70113;59.928;10.878;2023-06-26T09:07:21;6.07;;;2.40;;
80725;SDS011;70113;59.928;10.878;2023-06-26T09:09:47;5.43;;;2.70;;
80725;SDS011;70113;59.928;10.878;2023-06-26T09:12:12;5.57;;;2.60;;
80725;SDS011;70113;59.928;10.878;2023-06-26T09:14:38;5.75;;;2.70;;
80725;SDS011;70113;59.928;10.878;2023-06-26T09:17:04;4.55;;;2.20;;
80725;SDS011;70113;59.928;10.878;2023-06-26T09:19:30;4.70;;;2.58;;
80725;SDS011;70113;59.928;10.878;2023-06-26T09:21:56;4.07;;;2.00;;
80725;SDS011;70113;59.928;10.878;2023-06-26T09:24:22;4.97;;;2.40;;
80725;SDS011;70113;59.928;10.878;2023-06-26T09:26:48;5.45;;;2.60;;
80725;SDS011;70113;59.928;10.878;2023-06-26T09:29:17;5.90;;;2.75;;
80725;SDS011;70113;59.928;10.878;2023-06-26T09:31:44;5.55;;;2.60;;
80725;SDS011;70113;59.928;10.878;2023-06-26T09:34:10;4.35;;;2.47;;
80725;SDS011;70113;59.928;10.878;2023-06-26T09:36:38;4.40;;;2.38;;
80725;SDS011;70113;59.928;10.878;2023-06-26T09:39:06;4.30;;;2.40;;
80725;SDS011;70113;59.928;10.878;2023-06-26T09:41:36;5.05;;;2.70;;
80725;SDS011;70113;59.928;10.878;2023-06-26T09:44:05;6.82;;;2.95;;
80725;SDS011;70113;59.928;10.878;2023-06-26T09:46:33;6.07;;;2.67;;
80725;SDS011;70113;59.928;10.878;2023-06-26T09:51:24;5.75;;;2.83;;
80725;SDS011;70113;59.928;10.878;2023-06-26T09:53:50;6.18;;;2.72;;
80725;SDS011;70113;59.928;10.878;2023-06-26T09:56:16;5.43;;;2.63;;
80725;SDS011;70113;59.928;10.878;2023-06-26T09:58:43;4.88;;;2.55;;
80725;SDS011;70113;59.928;10.878;2023-06-26T10:01:09;5.70;;;2.78;;
80725;SDS011;70113;59.928;10.878;2023-06-26T10:03:35;5.20;;;2.70;;
80725;SDS011;70113;59.928;10.878;2023-06-26T10:06:02;6.45;;;2.70;;
80725;SDS011;70113;59.928;10.878;2023-06-26T10:08:28;5.95;;;2.63;;
80725;SDS011;70113;59.928;10.878;2023-06-26T10:10:55;5.57;;;3.20;;
80725;SDS011;70113;59.928;10.878;2023-06-26T10:13:25;4.97;;;2.72;;
80725;SDS011;70113;59.928;10.878;2023-06-26T10:15:56;4.80;;;2.75;;
80725;SDS011;70113;59.928;10.878;2023-06-26T10:18:25;6.88;;;3.03;;
80725;SDS011;70113;59.928;10.878;2023-06-26T10:20:53;5.50;;;2.80;;
80725;SDS011;70113;59.928;10.878;2023-06-26T10:23:23;5.20;;;2.83;;
80725;SDS011;70113;59.928;10.878;2023-06-26T10:25:51;5.47;;;3.10;;
80725;SDS011;70113;59.928;10.878;2023-06-26T10:28:20;4.57;;;2.70;;
80725;SDS011;70113;59.928;10.878;2023-06-26T10:30:48;4.60;;;3.00;;
80725;SDS011;70113;59.928;10.878;2023-06-26T10:33:17;5.88;;;3.40;;
80725;SDS011;70113;59.928;10.878;2023-06-26T10:35:44;5.10;;;3.47;;
80725;SDS011;70113;59.928;10.878;2023-06-26T10:38:11;5.45;;;3.38;;
80725;SDS011;70113;59.928;10.878;2023-06-26T10:40:40;5.82;;;4.10;;
80725;SDS011;70113;59.928;10.878;2023-06-26T10:43:08;5.28;;;3.60;;
80725;SDS011;70113;59.928;10.878;2023-06-26T10:45:34;6.07;;;4.18;;
80725;SDS011;70113;59.928;10.878;2023-06-26T10:48:01;6.25;;;3.83;;
80725;SDS011;70113;59.928;10.878;2023-06-26T10:50:29;6.32;;;4.13;;
80725;SDS011;70113;59.928;10.878;2023-06-26T11:01:22;5.87;;;4.03;;
80725;SDS011;70113;59.928;10.878;2023-06-26T11:08:50;7.68;;;4.20;;
80725;SDS011;70113;59.928;10.878;2023-06-26T11:11:19;5.60;;;4.57;;
80725;SDS011;70113;59.928;10.878;2023-06-26T11:13:45;6.28;;;4.22;;
80725;SDS011;70113;59.928;10.878;2023-06-26T11:16:13;6.05;;;4.05;;
80725;SDS011;70113;59.928;10.878;2023-06-26T11:18:39;7.57;;;4.30;;
80725;SDS011;70113;59.928;10.878;2023-06-26T11:21:11;5.60;;;4.18;;
80725;SDS011;70113;59.928;10.878;2023-06-26T11:23:39;8.18;;;4.65;;
80725;SDS011;70113;59.928;10.878;2023-06-26T11:26:18;6.07;;;4.25;;
80725;SDS011;70113;59.928;10.878;2023-06-26T11:31:27;8.40;;;4.57;;
80725;SDS011;70113;59.928;10.878;2023-06-26T11:33:57;5.70;;;4.10;;
80725;SDS011;70113;59.928;10.878;2023-06-26T11:36:28;6.03;;;4.40;;
80725;SDS011;70113;59.928;10.878;2023-06-26T11:38:58;6.50;;;4.10;;
80725;SDS011;70113;59.928;10.878;2023-06-26T11:41:29;6.27;;;4.40;;
80725;SDS011;70113;59.928;10.878;2023-06-26T11:44:02;6.97;;;4.82;;
80725;SDS011;70113;59.928;10.878;2023-06-26T11:46:35;7.45;;;4.22;;
80725;SDS011;70113;59.928;10.878;2023-06-26T11:49:05;8.73;;;4.35;;
80725;SDS011;70113;59.928;10.878;2023-06-26T11:51:32;9.25;;;5.00;;
80725;SDS011;70113;59.928;10.878;2023-06-26T11:54:00;6.43;;;4.97;;
80725;SDS011;70113;59.928;10.878;2023-06-26T11:56:28;6.53;;;4.45;;
80725;SDS011;70113;59.928;10.878;2023-06-26T12:01:34;6.55;;;4.65;;
80725;SDS011;70113;59.928;10.878;2023-06-26T12:04:07;8.18;;;5.10;;
80725;SDS011;70113;59.928;10.878;2023-06-26T12:06:35;7.00;;;5.15;;
80725;SDS011;70113;59.928;10.878;2023-06-26T12:09:04;8.43;;;4.43;;
80725;SDS011;70113;59.928;10.878;2023-06-26T12:11:33;6.57;;;4.25;;
80725;SDS011;70113;59.928;10.878;2023-06-26T12:14:00;6.97;;;4.97;;
80725;SDS011;70113;59.928;10.878;2023-06-26T12:16:29;6.78;;;4.80;;
80725;SDS011;70113;59.928;10.878;2023-06-26T12:19:02;8.38;;;4.68;;
80725;SDS011;70113;59.928;10.878;2023-06-26T12:21:45;7.05;;;4.55;;
80725;SDS011;70113;59.928;10.878;2023-06-26T12:24:13;7.43;;;4.75;;
80725;SDS011;70113;59.928;10.878;2023-06-26T12:26:47;7.88;;;5.75;;
80725;SDS011;70113;59.928;10.878;2023-06-26T12:29:17;6.30;;;4.50;;
80725;SDS011;70113;59.928;10.878;2023-06-26T12:31:44;7.80;;;4.53;;
80725;SDS011;70113;59.928;10.878;2023-06-26T12:34:12;5.95;;;4.28;;
80725;SDS011;70113;59.928;10.878;2023-06-26T12:36:43;6.68;;;4.60;;
80725;SDS011;70113;59.928;10.878;2023-06-26T12:39:16;6.90;;;4.20;;
80725;SDS011;70113;59.928;10.878;2023-06-26T12:41:51;7.00;;;4.50;;
80725;SDS011;70113;59.928;10.878;2023-06-26T12:44:19;6.65;;;4.05;;
80725;SDS011;70113;59.928;10.878;2023-06-26T12:46:53;5.78;;;3.88;;
80725;SDS011;70113;59.928;10.878;2023-06-26T12:49:20;10.65;;;3.88;;
80725;SDS011;70113;59.928;10.878;2023-06-26T12:51:54;7.10;;;4.30;;
80725;SDS011;70113;59.928;10.878;2023-06-26T12:54:19;7.47;;;4.53;;
80725;SDS011;70113;59.928;10.878;2023-06-26T12:56:45;6.10;;;3.80;;
80725;SDS011;70113;59.928;10.878;2023-06-26T12:59:10;8.00;;;4.07;;
80725;SDS011;70113;59.928;10.878;2023-06-26T13:01:36;6.60;;;4.32;;
80725;SDS011;70113;59.928;10.878;2023-06-26T13:04:02;6.53;;;4.32;;
80725;SDS011;70113;59.928;10.878;2023-06-26T13:06:29;5.93;;;4.28;;
80725;SDS011;70113;59.928;10.878;2023-06-26T13:08:54;5.78;;;4.20;;
80725;SDS011;70113;59.928;10.878;2023-06-26T13:11:20;7.65;;;4.32;;
80725;SDS011;70113;59.928;10.878;2023-06-26T13:13:46;6.45;;;4.00;;
80725;SDS011;70113;59.928;10.878;2023-06-26T13:16:12;7.55;;;4.50;;
80725;SDS011;70113;59.928;10.878;2023-06-26T13:18:38;5.55;;;4.00;;
80725;SDS011;70113;59.928;10.878;2023-06-26T13:21:04;11.15;;;4.65;;
80725;SDS011;70113;59.928;10.878;2023-06-26T13:23:30;7.85;;;4.50;;
80725;SDS011;70113;59.928;10.878;2023-06-26T13:25:55;7.32;;;4.70;;
80725;SDS011;70113;59.928;10.878;2023-06-26T13:28:21;6.45;;;4.05;;
80725;SDS011;70113;59.928;10.878;2023-06-26T13:30:47;6.32;;;4.10;;
80725;SDS011;70113;59.928;10.878;2023-06-26T13:33:13;5.75;;;3.95;;
80725;SDS011;70113;59.928;10.878;2023-06-26T13:35:39;6.95;;;4.38;;
80725;SDS011;70113;59.928;10.878;2023-06-26T13:38:05;6.25;;;4.13;;
80725;SDS011;70113;59.928;10.878;2023-06-26T13:40:30;5.93;;;4.38;;
80725;SDS011;70113;59.928;10.878;2023-06-26T13:42:56;6.05;;;4.43;;
80725;SDS011;70113;59.928;10.878;2023-06-26T13:45:22;6.47;;;4.82;;
80725;SDS011;70113;59.928;10.878;2023-06-26T13:47:47;6.40;;;4.97;;
80725;SDS011;70113;59.928;10.878;2023-06-26T13:50:13;7.32;;;4.82;;
80725;SDS011;70113;59.928;10.878;2023-06-26T13:52:39;10.90;;;4.57;;
80725;SDS011;70113;59.928;10.878;2023-06-26T13:55:05;5.60;;;4.43;;
80725;SDS011;70113;59.928;10.878;2023-06-26T13:57:31;7.30;;;4.78;;
80725;SDS011;70113;59.928;10.878;2023-06-26T13:59:57;6.20;;;4.20;;
80725;SDS011;70113;59.928;10.878;2023-06-26T14:02:23;6.60;;;5.32;;
80725;SDS011;70113;59.928;10.878;2023-06-26T14:04:49;8.05;;;4.95;;
80725;SDS011;70113;59.928;10.878;2023-06-26T14:07:14;6.30;;;4.32;;
80725;SDS011;70113;59.928;10.878;2023-06-26T14:09:40;6.43;;;4.43;;
80725;SDS011;70113;59.928;10.878;2023-06-26T14:12:06;8.80;;;4.82;;
80725;SDS011;70113;59.928;10.878;2023-06-26T14:14:33;6.40;;;4.43;;
80725;SDS011;70113;59.928;10.878;2023-06-26T14:16:58;6.85;;;4.43;;
80725;SDS011;70113;59.928;10.878;2023-06-26T14:19:25;8.25;;;4.72;;
80725;SDS011;70113;59.928;10.878;2023-06-26T14:21:51;7.22;;;4.45;;
80725;SDS011;70113;59.928;10.878;2023-06-26T14:24:17;5.70;;;4.25;;
80725;SDS011;70113;59.928;10.878;2023-06-26T14:26:43;6.28;;;4.30;;
80725;SDS011;70113;59.928;10.878;2023-06-26T14:29:08;5.80;;;4.40;;
80725;SDS011;70113;59.928;10.878;2023-06-26T14:31:34;7.13;;;4.35;;
80725;SDS011;70113;59.928;10.878;2023-06-26T14:34:00;6.43;;;4.30;;
80725;SDS011;70113;59.928;10.878;2023-06-26T14:36:27;5.90;;;4.32;;
80725;SDS011;70113;59.928;10.878;2023-06-26T14:38:53;5.97;;;4.22;;
80725;SDS011;70113;59.928;10.878;2023-06-26T14:41:19;7.75;;;4.28;;
80725;SDS011;70113;59.928;10.878;2023-06-26T14:43:45;6.20;;;4.35;;
80725;SDS011;70113;59.928;10.878;2023-06-26T14:46:10;7.53;;;4.10;;
80725;SDS011;70113;59.928;10.878;2023-06-26T14:48:36;7.28;;;4.13;;
80725;SDS011;70113;59.928;10.878;2023-06-26T14:51:02;6.47;;;4.38;;
80725;SDS011;70113;59.928;10.878;2023-06-26T14:53:28;6.13;;;4.05;;
80725;SDS011;70113;59.928;10.878;2023-06-26T14:55:53;6.32;;;4.75;;
80725;SDS011;70113;59.928;10.878;2023-06-26T14:58:19;6.32;;;4.20;;
80725;SDS011;70113;59.928;10.878;2023-06-26T15:00:45;10.35;;;4.50;;
80725;SDS011;70113;59.928;10.878;2023-06-26T15:03:11;5.72;;;4.13;;
80725;SDS011;70113;59.928;10.878;2023-06-26T15:05:37;5.65;;;4.25;;